^^
Station Historical Data
Daily Summary for September 4, 2017 Units:  English    Metric   Both
« Previous Day
Next Day »
Daily Weekly Monthly Yearly Custom
  High: Low: Average:
Temperature: 79.7 °F 56.7 °F 68.5 °F
Dew Point: 60.8 °F 55.0 °F 58.2 °F
Humidity: 95% 48% 72%
Wind Speed: 9.0mph 0.0mph 2.9mph
Wind Gust: 20.0mph - -
Wind- - SSW
Pressure: 29.98 in 29.85 in -
Precipitation: 0.00 in    
Historical Graphs
 
 
Tabular Data for September 4, 2017
Time Temperature Dew Point Pressure Wind Wind Speed Wind Gust Humidity Rainfall Rate (Hourly) Conditions
00:00 61.1 °F 57.8 °F 29.92 in SW 1.0 mph 5.0 mph 89% 0.00 in RA
00:15 60.9 °F 57.9 °F 29.92 in SW 1.0 mph 5.0 mph 90% 0.00 in CLR
00:30 60.8 °F 57.8 °F 29.92 in SW 1.0 mph 8.0 mph 90% 0.00 in CLR
00:45 60.5 °F 57.9 °F 29.92 in SW 1.0 mph 6.0 mph 91% 0.00 in CLR
01:00 60.3 °F 58.0 °F 29.92 in Calm   7.0 mph 92% 0.00 in CLR
01:15 60.1 °F 57.8 °F 29.92 in Calm   5.0 mph 92% 0.00 in CLR
01:30 59.6 °F 57.3 °F 29.92 in Calm   4.0 mph 92% 0.00 in CLR
01:45 59.2 °F 57.2 °F 29.92 in Calm   2.0 mph 93% 0.00 in CLR
02:00 58.7 °F 56.7 °F 29.92 in Calm   2.0 mph 93% 0.00 in CLR
02:15 58.6 °F 56.9 °F 29.92 in South 1.0 mph 4.0 mph 94% 0.00 in CLR
02:30 58.7 °F 56.7 °F 29.92 in Calm   5.0 mph 93% 0.00 in CLR
02:45 58.3 °F 56.3 °F 29.93 in South 1.0 mph 2.0 mph 93% 0.00 in CLR
03:00 58.5 °F 56.8 °F 29.93 in SSW 1.0 mph 6.0 mph 94% 0.00 in CLR
03:15 58.6 °F 56.6 °F 29.92 in Calm   4.0 mph 93% 0.00 in CLR
03:30 58.3 °F 56.3 °F 29.93 in SSW 1.0 mph 2.0 mph 93% 0.00 in CLR
03:45 58.0 °F 56.3 °F 29.93 in SSW 1.0 mph 4.0 mph 94% 0.00 in CLR
04:00 58.1 °F 56.4 °F 29.93 in SSW 3.0 mph 6.0 mph 94% 0.00 in CLR
04:15 58.2 °F 56.2 °F 29.93 in South 3.0 mph 8.0 mph 93% 0.00 in CLR
04:30 58.2 °F 56.2 °F 29.93 in SSW 1.0 mph 5.0 mph 93% 0.00 in CLR
04:45 58.1 °F 56.1 °F 29.94 in Calm   4.0 mph 93% 0.00 in CLR
05:00 57.8 °F 55.8 °F 29.94 in Calm   2.0 mph 93% 0.00 in CLR
05:15 57.4 °F 55.7 °F 29.94 in Calm   2.0 mph 94% 0.00 in CLR
05:30 57.2 °F 55.5 °F 29.95 in Calm   2.0 mph 94% 0.00 in CLR
05:45 56.7 °F 55.0 °F 29.95 in South 1.0 mph 2.0 mph 94% 0.00 in CLR
06:00 56.8 °F 55.4 °F 29.96 in Calm   2.0 mph 95% 0.00 in CLR
06:15 57.0 °F 55.6 °F 29.97 in Calm   3.0 mph 95% 0.00 in CLR
06:30 57.3 °F 55.6 °F 29.97 in Calm   4.0 mph 94% 0.00 in CLR
06:45 57.2 °F 55.5 °F 29.97 in SSW 1.0 mph 2.0 mph 94% 0.00 in CLR
07:00 57.3 °F 55.6 °F 29.98 in Calm   2.0 mph 94% 0.00 in CLR
07:15 57.6 °F 55.9 °F 29.98 in Calm   2.0 mph 94% 0.00 in CLR
07:30 58.1 °F 56.1 °F 29.98 in Calm   2.0 mph 93% 0.00 in CLR
07:45 58.4 °F 56.4 °F 29.98 in Calm   2.0 mph 93% 0.00 in CLR
08:00 58.8 °F 56.8 °F 29.98 in South 1.0 mph 2.0 mph 93% 0.00 in CLR
08:15 59.7 °F 57.1 °F 29.97 in Calm   3.0 mph 91% 0.00 in CLR
08:30 60.8 °F 57.6 °F 29.97 in Calm   2.0 mph 89% 0.00 in CLR
08:45 62.5 °F 57.6 °F 29.97 in SSW 2.0 mph 5.0 mph 84% 0.00 in CLR
09:00 63.3 °F 58.0 °F 29.98 in South 2.0 mph 8.0 mph 83% 0.00 in CLR
09:15 64.1 °F 58.5 °F 29.98 in SW 2.0 mph 6.0 mph 82% 0.00 in CLR
09:30 65.3 °F 59.0 °F 29.98 in WSW 1.0 mph 5.0 mph 80% 0.00 in CLR
09:45 66.5 °F 59.1 °F 29.98 in SW 3.0 mph 9.0 mph 77% 0.00 in CLR
10:00 67.6 °F 59.4 °F 29.98 in SSW 5.0 mph 7.0 mph 75% 0.00 in CLR
10:15 68.9 °F 59.9 °F 29.98 in SW 2.0 mph 7.0 mph 73% 0.00 in CLR
10:30 69.2 °F 59.8 °F 29.98 in South 2.0 mph 9.0 mph 72% 0.00 in CLR
10:45 69.9 °F 60.1 °F 29.98 in SW 2.0 mph 9.0 mph 71% 0.00 in CLR
11:00 70.9 °F 60.2 °F 29.98 in South 2.0 mph 8.0 mph 69% 0.00 in CLR
11:15 71.8 °F 59.8 °F 29.98 in South 6.0 mph 12.0 mph 66% 0.00 in CLR
11:30 72.8 °F 60.8 °F 29.98 in SSW 2.0 mph 7.0 mph 66% 0.00 in CLR
11:45 73.2 °F 59.9 °F 29.97 in South 2.0 mph 8.0 mph 63% 0.00 in CLR
12:00 73.6 °F 59.3 °F 29.96 in SSW 5.0 mph 8.0 mph 61% 0.00 in CLR
12:15 74.6 °F 59.4 °F 29.96 in South 5.0 mph 12.0 mph 59% 0.00 in CLR
12:30 75.5 °F 60.6 °F 29.96 in SSW 3.0 mph 10.0 mph 60% 0.00 in CLR
12:45 75.8 °F 59.9 °F 29.95 in SW 5.0 mph 12.0 mph 58% 0.00 in CLR
13:00 76.5 °F 59.1 °F 29.95 in SW 5.0 mph 12.0 mph 55% 0.00 in CLR
13:15 76.7 °F 58.8 °F 29.94 in SSW 3.0 mph 11.0 mph 54% 0.00 in CLR
13:30 77.2 °F 57.7 °F 29.94 in South 6.0 mph 13.0 mph 51% 0.00 in CLR
13:45 78.1 °F 57.9 °F 29.94 in SW 6.0 mph 12.0 mph 50% 0.00 in CLR
14:00 78.6 °F 59.0 °F 29.93 in SSW 6.0 mph 13.0 mph 51% 0.00 in CLR
14:15 79.3 °F 59.6 °F 29.93 in WSW 5.0 mph 13.0 mph 51% 0.00 in FEW
14:30 78.7 °F 60.1 °F 29.92 in SW 7.0 mph 12.0 mph 53% 0.00 in FEW
14:45 78.6 °F 60.1 °F 29.92 in SW 6.0 mph 14.0 mph 53% 0.00 in FEW
15:00 79.0 °F 59.9 °F 29.91 in SW 5.0 mph 13.0 mph 52% 0.00 in FEW
15:15 79.2 °F 59.5 °F 29.91 in SSW 9.0 mph 20.0 mph 51% 0.00 in FEW
15:30 79.0 °F 59.8 °F 29.90 in SW 5.0 mph 14.0 mph 52% 0.00 in FEW
15:45 79.2 °F 59.5 °F 29.90 in SSW 3.0 mph 12.0 mph 51% 0.00 in FEW
16:00 79.6 °F 59.3 °F 29.89 in WSW 3.0 mph 16.0 mph 50% 0.00 in FEW
16:15 79.7 °F 58.8 °F 29.89 in SSW 6.0 mph 17.0 mph 49% 0.00 in SCT
16:30 79.7 °F 59.4 °F 29.88 in SW 7.0 mph 13.0 mph 50% 0.00 in SCT
16:45 79.4 °F 58.6 °F 29.88 in SW 7.0 mph 13.0 mph 49% 0.00 in SCT
17:00 79.6 °F 58.8 °F 29.87 in SW 7.0 mph 15.0 mph 49% 0.00 in SCT
17:15 79.4 °F 58.0 °F 29.87 in WSW 5.0 mph 14.0 mph 48% 0.00 in FEW
17:30 79.6 °F 58.8 °F 29.86 in SSW 3.0 mph 12.0 mph 49% 0.00 in FEW
17:45 79.5 °F 59.3 °F 29.86 in South 7.0 mph 12.0 mph 50% 0.00 in FEW
18:01 78.7 °F 59.1 °F 29.86 in SSW 6.0 mph 15.0 mph 51% 0.00 in FEW
18:15 78.3 °F 59.7 °F 29.86 in South 7.0 mph 13.0 mph 53% 0.00 in FEW
18:30 77.9 °F 59.9 °F 29.86 in SSW 2.0 mph 12.0 mph 54% 0.00 in FEW
18:45 77.3 °F 59.4 °F 29.86 in SSW 7.0 mph 14.0 mph 54% 0.00 in FEW
19:00 76.3 °F 58.4 °F 29.86 in SSW 5.0 mph 12.0 mph 54% 0.00 in FEW
19:15 75.7 °F 58.4 °F 29.85 in South 5.0 mph 12.0 mph 55% 0.00 in FEW
19:30 75.1 °F 58.3 °F 29.86 in SSW 5.0 mph 12.0 mph 56% 0.00 in FEW
19:45 74.5 °F 58.3 °F 29.86 in South 5.0 mph 12.0 mph 57% 0.00 in FEW
20:00 74.1 °F 58.4 °F 29.86 in South 2.0 mph 12.0 mph 58% 0.00 in FEW
20:15 73.8 °F 58.1 °F 29.86 in South 2.0 mph 13.0 mph 58% 0.00 in CLR
20:30 73.7 °F 57.5 °F 29.86 in SW 3.0 mph 13.0 mph 57% 0.00 in CLR
20:45 73.1 °F 57.4 °F 29.87 in SSW 2.0 mph 8.0 mph 58% 0.00 in CLR
21:00 72.7 °F 58.0 °F 29.87 in SSW 2.0 mph 12.0 mph 60% 0.00 in CLR
21:15 72.5 °F 58.3 °F 29.86 in SSW 5.0 mph 10.0 mph 61% 0.00 in CLR
21:30 72.3 °F 58.5 °F 29.86 in SSW 3.0 mph 9.0 mph 62% 0.00 in CLR
21:45 72.2 °F 58.5 °F 29.86 in SW 5.0 mph 10.0 mph 62% 0.00 in CLR
22:00 71.9 °F 58.6 °F 29.85 in SSW 2.0 mph 10.0 mph 63% 0.00 in CLR
22:15 71.5 °F 58.7 °F 29.86 in SSW 7.0 mph 12.0 mph 64% 0.00 in CLR
22:30 71.1 °F 59.6 °F 29.86 in SSW 5.0 mph 10.0 mph 67% 0.00 in CLR
22:45 70.9 °F 60.2 °F 29.85 in South 5.0 mph 12.0 mph 69% 0.00 in CLR
23:00 70.7 °F 60.8 °F 29.85 in SSW 3.0 mph 14.0 mph 71% 0.00 in CLR
23:15 70.4 °F 60.5 °F 29.85 in South 5.0 mph 10.0 mph 71% 0.00 in CLR
23:30 70.3 °F 60.8 °F 29.85 in SSW 3.0 mph 13.0 mph 72% 0.00 in CLR
23:45 70.0 °F 60.6 °F 29.85 in SW 5.0 mph 9.0 mph 72% 0.00 in CLR
TarryTown NY Weather
Compliments of Weather Underground - 1.5 mb